createdAt,value
2023-03-27T00:00:19.025Z,72.78
2023-03-27T00:02:51.648Z,76.57
2023-03-27T00:05:22.784Z,69.35
2023-03-27T00:07:57.264Z,72.55
2023-03-27T00:10:28.070Z,60.65
2023-03-27T00:12:58.679Z,74.32
2023-03-27T00:15:28.842Z,84.63
2023-03-27T00:18:00.274Z,77.25
2023-03-27T00:20:31.684Z,85.60
2023-03-27T00:23:02.329Z,90.85
2023-03-27T00:25:33.236Z,87.50
2023-03-27T00:28:04.205Z,76.05
2023-03-27T00:30:35.371Z,66.53
2023-03-27T00:33:06.026Z,66.80
2023-03-27T00:35:36.387Z,66.57
2023-03-27T00:38:09.271Z,72.00
2023-03-27T00:40:41.032Z,68.57
2023-03-27T00:43:31.178Z,60.92
2023-03-27T00:46:17.861Z,65.43
2023-03-27T00:48:50.117Z,63.90
2023-03-27T00:51:21.314Z,60.65
2023-03-27T00:53:52.231Z,57.55
2023-03-27T00:56:23.380Z,60.15
2023-03-27T00:58:55.280Z,65.35
2023-03-27T01:01:27.733Z,61.58
2023-03-27T01:03:58.595Z,63.08
2023-03-27T01:06:29.288Z,62.05
2023-03-27T01:09:00.204Z,63.80
2023-03-27T01:11:50.274Z,68.88
2023-03-27T01:14:40.181Z,60.00
2023-03-27T01:17:20.739Z,54.40
2023-03-27T01:19:56.655Z,54.53
2023-03-27T01:22:43.639Z,43.45
2023-03-27T01:25:32.152Z,55.60
2023-03-27T01:28:12.131Z,48.78
2023-03-27T01:30:46.208Z,50.33
2023-03-27T01:33:35.962Z,46.47
2023-03-27T01:36:11.556Z,45.85
2023-03-27T01:39:01.454Z,46.38
2023-03-27T01:41:38.527Z,48.22
2023-03-27T01:44:19.941Z,53.45
2023-03-27T01:47:01.182Z,51.22
2023-03-27T01:49:35.624Z,43.08
2023-03-27T01:52:07.301Z,46.78
2023-03-27T01:54:38.811Z,51.67
2023-03-27T01:57:17.983Z,46.95
2023-03-27T01:59:51.725Z,48.38
2023-03-27T02:02:25.897Z,43.40
2023-03-27T02:05:00.855Z,46.00
2023-03-27T02:07:34.704Z,40.35
2023-03-27T02:10:08.225Z,44.85
2023-03-27T02:12:45.889Z,44.85
2023-03-27T02:15:24.058Z,51.20
2023-03-27T02:18:06.605Z,44.45
2023-03-27T02:20:37.887Z,47.15
2023-03-27T02:23:09.252Z,49.47
2023-03-27T02:25:41.510Z,43.50
2023-03-27T02:28:24.384Z,50.88
2023-03-27T02:31:31.190Z,44.15
2023-03-27T02:34:11.760Z,43.80
2023-03-27T02:37:03.701Z,50.92
2023-03-27T02:39:59.257Z,47.35
2023-03-27T02:42:49.375Z,45.25
2023-03-27T02:45:39.537Z,45.05
2023-03-27T02:48:13.123Z,45.30
2023-03-27T02:50:53.266Z,50.80
2023-03-27T02:53:25.370Z,51.90
2023-03-27T02:55:57.566Z,51.22
2023-03-27T02:58:32.389Z,50.65
2023-03-27T03:01:23.875Z,54.35
2023-03-27T03:04:33.450Z,49.97
2023-03-27T03:07:24.320Z,49.90
2023-03-27T03:09:54.840Z,49.90
2023-03-27T03:12:26.347Z,45.75
2023-03-27T03:15:00.611Z,47.72
2023-03-27T03:17:31.201Z,39.08
2023-03-27T03:20:01.485Z,47.28
2023-03-27T03:22:32.211Z,42.63
2023-03-27T03:25:03.769Z,47.58
2023-03-27T03:27:35.694Z,45.85
2023-03-27T03:30:16.828Z,42.22
2023-03-27T03:33:02.473Z,50.80
2023-03-27T03:35:33.494Z,47.22
2023-03-27T03:38:08.054Z,46.10
2023-03-27T03:40:46.859Z,48.90
2023-03-27T03:43:17.793Z,55.53
2023-03-27T03:45:47.988Z,50.70
2023-03-27T03:48:20.065Z,56.22
2023-03-27T03:50:51.377Z,52.80
2023-03-27T03:53:23.029Z,51.78
2023-03-27T03:55:55.780Z,40.92
2023-03-27T03:58:34.585Z,37.72
2023-03-27T04:01:08.273Z,38.05
2023-03-27T04:03:45.513Z,41.60
2023-03-27T04:06:20.497Z,39.22
2023-03-27T04:08:51.537Z,40.55
2023-03-27T04:11:41.871Z,36.78
2023-03-27T04:14:31.620Z,31.55
2023-03-27T04:17:04.381Z,32.28
2023-03-27T04:19:35.433Z,33.85
2023-03-27T04:22:08.535Z,31.13
2023-03-27T04:24:40.192Z,30.67
2023-03-27T04:27:11.048Z,32.97
2023-03-27T04:29:50.554Z,29.52
2023-03-27T04:32:40.313Z,30.92
2023-03-27T04:35:30.208Z,30.75
2023-03-27T04:38:11.174Z,30.48
2023-03-27T04:40:50.633Z,36.03
2023-03-27T04:43:21.500Z,32.35
2023-03-27T04:45:52.399Z,25.02
2023-03-27T04:48:23.438Z,28.90
2023-03-27T04:50:58.536Z,23.65
2023-03-27T04:53:37.724Z,24.02
2023-03-27T04:56:09.808Z,27.38
2023-03-27T04:58:48.199Z,27.63
2023-03-27T05:01:19.444Z,33.30
2023-03-27T05:04:09.920Z,22.67
2023-03-27T05:07:01.660Z,21.27
2023-03-27T05:09:32.260Z,28.90
2023-03-27T05:12:03.205Z,23.17
2023-03-27T05:14:40.230Z,17.48
2023-03-27T05:17:27.319Z,19.52
2023-03-27T05:19:58.520Z,20.95
2023-03-27T05:22:29.909Z,21.08
2023-03-27T05:25:10.076Z,22.40
2023-03-27T05:27:41.789Z,21.92
2023-03-27T05:30:12.862Z,20.48
2023-03-27T05:32:43.566Z,23.95
2023-03-27T05:35:19.535Z,22.08
2023-03-27T05:37:53.594Z,20.75
2023-03-27T05:40:29.934Z,21.30
2023-03-27T05:43:00.824Z,22.15
2023-03-27T05:45:34.807Z,20.58
2023-03-27T05:48:06.096Z,21.08
2023-03-27T05:50:43.685Z,20.27
2023-03-27T05:53:28.023Z,19.05
2023-03-27T05:56:17.102Z,19.48
2023-03-27T05:58:59.899Z,20.83
2023-03-27T06:01:32.003Z,16.88
2023-03-27T06:04:02.833Z,19.70
2023-03-27T06:06:47.046Z,16.73
2023-03-27T06:09:17.337Z,22.60
2023-03-27T06:12:05.153Z,21.13
2023-03-27T06:14:41.176Z,18.45
2023-03-27T06:17:31.360Z,16.38
2023-03-27T06:20:05.167Z,19.40
2023-03-27T06:22:35.949Z,18.13
2023-03-27T06:25:08.642Z,15.15
2023-03-27T06:27:39.509Z,17.65
2023-03-27T06:30:10.872Z,18.38
2023-03-27T06:32:50.808Z,12.90
2023-03-27T06:35:21.789Z,15.52
2023-03-27T06:37:57.434Z,19.77
2023-03-27T06:40:29.447Z,14.57
2023-03-27T06:43:03.838Z,14.68
2023-03-27T06:45:44.499Z,13.38
2023-03-27T06:48:34.292Z,14.38
2023-03-27T06:51:07.459Z,14.02
2023-03-27T06:53:38.538Z,14.68
2023-03-27T06:56:10.889Z,14.30
2023-03-27T06:59:00.652Z,13.52
2023-03-27T07:01:31.818Z,13.15
2023-03-27T07:04:22.819Z,14.23
2023-03-27T07:07:03.223Z,15.38
2023-03-27T07:09:39.712Z,14.65
2023-03-27T07:12:12.093Z,12.93
2023-03-27T07:14:44.881Z,14.82
2023-03-27T07:17:15.172Z,15.07
2023-03-27T07:19:59.001Z,14.57
2023-03-27T07:22:31.940Z,13.68
2023-03-27T07:25:08.504Z,13.43
2023-03-27T07:27:43.971Z,15.93
2023-03-27T07:30:15.204Z,14.00
2023-03-27T07:32:48.769Z,15.77
2023-03-27T07:35:20.017Z,12.63
2023-03-27T07:38:11.201Z,13.27
2023-03-27T07:40:59.380Z,11.85
2023-03-27T07:43:49.505Z,21.08
2023-03-27T07:46:20.243Z,15.32
2023-03-27T07:48:52.264Z,15.68
2023-03-27T07:51:25.672Z,14.90
2023-03-27T07:54:00.142Z,15.02
2023-03-27T07:56:40.693Z,19.75
2023-03-27T07:59:30.867Z,17.38
2023-03-27T08:02:09.121Z,16.27
2023-03-27T08:04:42.522Z,16.48
2023-03-27T08:07:13.386Z,15.65
2023-03-27T08:09:46.196Z,21.67
2023-03-27T08:12:17.278Z,15.90
2023-03-27T08:14:58.923Z,16.77
2023-03-27T08:17:34.051Z,31.42
2023-03-27T08:20:08.226Z,19.63
2023-03-27T08:22:47.069Z,17.58
2023-03-27T08:25:37.524Z,22.33
2023-03-27T08:28:10.956Z,20.48
2023-03-27T08:30:43.448Z,18.73
2023-03-27T08:33:13.664Z,15.65
2023-03-27T08:35:44.309Z,18.73
2023-03-27T08:38:26.305Z,20.38
2023-03-27T08:41:28.818Z,19.27
2023-03-27T08:44:16.927Z,21.10
2023-03-27T08:46:54.113Z,19.45
2023-03-27T08:49:25.316Z,17.70
2023-03-27T08:52:17.416Z,20.02
2023-03-27T08:55:11.076Z,18.75
2023-03-27T08:57:51.894Z,20.02
2023-03-27T09:00:29.405Z,20.77
2023-03-27T09:03:29.633Z,18.63
2023-03-27T09:06:10.097Z,19.20
2023-03-27T09:08:51.567Z,16.85
2023-03-27T09:11:32.241Z,17.58
2023-03-27T09:14:09.700Z,19.55
2023-03-27T09:16:50.674Z,25.20
2023-03-27T09:19:37.635Z,20.15
2023-03-27T09:22:16.857Z,20.42
2023-03-27T09:25:01.179Z,19.23
2023-03-27T09:27:52.257Z,22.55
2023-03-27T09:30:33.434Z,19.65
2023-03-27T09:33:13.883Z,18.67
2023-03-27T09:35:47.257Z,20.85
2023-03-27T09:38:29.596Z,21.30
2023-03-27T09:41:04.400Z,21.73
2023-03-27T09:43:43.787Z,21.30
2023-03-27T09:46:18.969Z,17.92
2023-03-27T09:49:17.474Z,20.92
2023-03-27T09:51:56.127Z,18.92
2023-03-27T09:54:56.308Z,18.73
2023-03-27T09:57:40.097Z,18.92
2023-03-27T10:00:32.435Z,22.15
2023-03-27T10:03:07.435Z,19.30
2023-03-27T10:05:43.358Z,19.85
2023-03-27T10:08:33.196Z,18.88
2023-03-27T10:11:25.745Z,23.00
2023-03-27T10:14:03.064Z,25.45
2023-03-27T10:16:41.681Z,22.17
2023-03-27T10:19:23.601Z,21.33
2023-03-27T10:21:55.017Z,22.05
2023-03-27T10:24:35.764Z,22.40
2023-03-27T10:27:26.913Z,20.10
2023-03-27T10:30:28.913Z,20.85
2023-03-27T10:33:13.340Z,22.20
2023-03-27T10:35:57.569Z,23.15
2023-03-27T10:38:32.342Z,25.08
2023-03-27T10:41:28.524Z,23.90
2023-03-27T10:44:02.537Z,23.30
2023-03-27T10:46:33.902Z,23.70
2023-03-27T10:49:30.820Z,21.17
2023-03-27T10:52:21.159Z,23.63
2023-03-27T10:55:25.987Z,20.48
2023-03-27T10:57:58.761Z,26.67
2023-03-27T11:00:38.203Z,29.58
2023-03-27T11:03:15.282Z,28.38
2023-03-27T11:05:49.901Z,24.67
2023-03-27T11:09:00.323Z,26.45
2023-03-27T11:11:51.969Z,26.38
2023-03-27T11:14:42.464Z,30.98
2023-03-27T11:17:19.329Z,32.83
2023-03-27T11:20:17.774Z,36.63
2023-03-27T11:23:11.796Z,45.20
2023-03-27T11:25:53.509Z,47.55
2023-03-27T11:28:41.214Z,40.25
2023-03-27T11:31:21.222Z,39.40
2023-03-27T11:33:57.391Z,33.47
2023-03-27T11:36:48.484Z,33.45
2023-03-27T11:39:34.649Z,44.90
2023-03-27T11:42:26.460Z,52.03
2023-03-27T11:44:57.358Z,37.83
2023-03-27T11:47:54.856Z,60.13
2023-03-27T11:50:27.604Z,59.85
2023-03-27T11:53:17.931Z,79.53
2023-03-27T11:56:20.879Z,61.95
2023-03-27T11:59:16.823Z,62.30
2023-03-27T12:02:17.029Z,55.78
2023-03-27T12:04:53.717Z,59.60
2023-03-27T12:07:36.466Z,56.92
2023-03-27T12:10:30.066Z,59.80
2023-03-27T12:13:40.558Z,58.88
2023-03-27T12:16:42.953Z,55.95
2023-03-27T12:19:38.797Z,54.95
2023-03-27T12:22:30.385Z,60.95
2023-03-27T12:25:23.003Z,68.35
2023-03-27T12:28:32.496Z,63.15
2023-03-27T12:31:21.471Z,59.38
2023-03-27T12:34:11.347Z,55.92
2023-03-27T12:36:44.548Z,63.78
2023-03-27T12:39:26.080Z,54.60
2023-03-27T12:41:59.734Z,59.70
2023-03-27T12:45:00.063Z,55.78
2023-03-27T12:47:32.651Z,47.92
2023-03-27T12:50:22.004Z,51.53
2023-03-27T12:52:54.812Z,50.88
2023-03-27T12:55:33.359Z,55.10
2023-03-27T12:58:33.692Z,57.25
2023-03-27T13:01:51.147Z,51.28
2023-03-27T13:04:45.976Z,49.40
2023-03-27T13:07:36.258Z,58.75
2023-03-27T13:10:33.186Z,50.65
2023-03-27T13:13:23.337Z,56.00
2023-03-27T13:16:15.461Z,60.33
2023-03-27T13:19:09.215Z,60.42
2023-03-27T13:22:13.984Z,63.63
2023-03-27T13:25:03.564Z,48.97
2023-03-27T13:27:54.901Z,52.60
2023-03-27T13:30:45.186Z,59.70
2023-03-27T13:33:42.873Z,48.90
2023-03-27T13:36:19.076Z,54.42
2023-03-27T13:39:10.136Z,43.33
2023-03-27T13:41:55.185Z,45.65
2023-03-27T13:44:58.222Z,45.53
2023-03-27T13:47:44.697Z,35.50
2023-03-27T13:50:28.800Z,40.20
2023-03-27T13:53:20.005Z,43.08
2023-03-27T13:56:20.004Z,45.55
2023-03-27T13:59:29.487Z,41.75
2023-03-27T14:02:20.828Z,41.78
2023-03-27T14:05:10.988Z,35.88
2023-03-27T14:08:03.557Z,37.22
2023-03-27T14:11:12.924Z,39.03
2023-03-27T14:13:56.696Z,37.80
2023-03-27T14:16:46.536Z,41.20
2023-03-27T14:19:39.267Z,34.15
2023-03-27T14:22:25.560Z,63.00
2023-03-27T14:25:04.362Z,36.92
2023-03-27T14:27:53.760Z,28.88
2023-03-27T14:30:30.718Z,31.40
2023-03-27T14:33:21.622Z,33.42
2023-03-27T14:35:58.660Z,35.58
2023-03-27T14:38:34.791Z,40.75
2023-03-27T14:41:06.350Z,41.67
2023-03-27T14:43:50.970Z,43.10
2023-03-27T14:46:24.379Z,36.70
2023-03-27T14:48:59.555Z,42.17
2023-03-27T14:51:43.400Z,39.78
2023-03-27T14:54:39.128Z,30.17
2023-03-27T14:57:16.153Z,39.88
2023-03-27T14:59:58.207Z,40.30
2023-03-27T15:02:33.255Z,35.13
2023-03-27T15:05:11.331Z,39.33
2023-03-27T15:07:44.663Z,35.35
2023-03-27T15:10:27.678Z,38.35
2023-03-27T15:13:17.765Z,38.88
2023-03-27T15:15:55.126Z,43.08
2023-03-27T15:18:35.217Z,42.97
2023-03-27T15:21:13.111Z,38.50
2023-03-27T15:23:48.263Z,47.35
2023-03-27T15:26:26.064Z,36.70
2023-03-27T15:29:05.616Z,37.83
2023-03-27T15:31:36.999Z,35.25
2023-03-27T15:34:26.819Z,32.30
2023-03-27T15:37:01.543Z,33.78
2023-03-27T15:39:32.261Z,33.65
2023-03-27T15:42:07.112Z,35.28
2023-03-27T15:44:37.369Z,31.63
2023-03-27T15:47:26.310Z,42.40
2023-03-27T15:50:16.620Z,38.47
2023-03-27T15:52:50.820Z,29.90
2023-03-27T15:55:41.097Z,41.95
2023-03-27T15:58:31.878Z,35.20
2023-03-27T16:01:18.407Z,34.53
2023-03-27T16:03:51.989Z,35.70
2023-03-27T16:06:28.241Z,35.33
2023-03-27T16:08:58.474Z,37.58
2023-03-27T16:11:48.641Z,38.90
2023-03-27T16:14:30.104Z,36.70
2023-03-27T16:17:23.014Z,37.28
2023-03-27T16:20:01.228Z,34.33
2023-03-27T16:22:36.265Z,35.60
2023-03-27T16:25:10.235Z,34.20
2023-03-27T16:27:51.848Z,37.95
2023-03-27T16:30:29.381Z,39.33
2023-03-27T16:33:01.017Z,37.58
2023-03-27T16:35:35.998Z,38.47
2023-03-27T16:38:06.160Z,37.88
2023-03-27T16:40:36.428Z,42.65
2023-03-27T16:43:06.664Z,36.75
2023-03-27T16:45:37.428Z,143.43
2023-03-27T16:48:09.811Z,46.22
2023-03-27T16:50:40.399Z,38.67
2023-03-27T16:53:10.583Z,41.60
2023-03-27T16:55:41.112Z,43.95
2023-03-27T16:58:11.893Z,39.05
2023-03-27T17:00:42.345Z,32.15
2023-03-27T17:03:13.050Z,37.40
2023-03-27T17:05:45.596Z,36.42
2023-03-27T17:08:18.004Z,36.72
2023-03-27T17:10:50.164Z,36.22
2023-03-27T17:13:20.324Z,39.90
2023-03-27T17:15:53.061Z,36.45
2023-03-27T17:18:23.602Z,41.30
2023-03-27T17:20:54.876Z,37.50
2023-03-27T17:23:25.399Z,35.75
2023-03-27T17:25:56.055Z,36.00
2023-03-27T17:28:26.373Z,35.08
2023-03-27T17:31:05.186Z,35.38
2023-03-27T17:33:36.350Z,32.15
2023-03-27T17:36:10.474Z,40.00
2023-03-27T17:38:41.514Z,39.42
2023-03-27T17:41:13.598Z,29.25
2023-03-27T17:43:44.145Z,31.33
2023-03-27T17:46:18.107Z,29.02
2023-03-27T17:48:50.763Z,27.83
2023-03-27T17:51:20.969Z,34.75
2023-03-27T17:53:51.564Z,28.35
2023-03-27T17:56:22.399Z,27.90
2023-03-27T17:58:52.956Z,28.38
2023-03-27T18:01:24.768Z,32.38
2023-03-27T18:03:56.707Z,29.52
2023-03-27T18:06:27.262Z,33.05
2023-03-27T18:08:57.844Z,29.67
2023-03-27T18:11:28.101Z,23.33
2023-03-27T18:13:58.327Z,27.70
2023-03-27T18:16:28.958Z,28.08
2023-03-27T18:18:59.910Z,26.65
2023-03-27T18:21:30.149Z,26.92
2023-03-27T18:24:01.129Z,22.35
2023-03-27T18:26:31.734Z,26.83
2023-03-27T18:29:02.518Z,26.42
2023-03-27T18:31:33.490Z,24.98
2023-03-27T18:34:04.122Z,26.13
2023-03-27T18:36:34.551Z,25.23
2023-03-27T18:39:05.977Z,27.50
2023-03-27T18:41:41.204Z,24.65
2023-03-27T18:44:14.142Z,28.27
2023-03-27T18:46:44.338Z,23.02
2023-03-27T18:49:24.301Z,30.35
2023-03-27T18:51:56.026Z,28.13
2023-03-27T18:54:26.358Z,24.08
2023-03-27T18:56:56.688Z,31.48
2023-03-27T18:59:27.422Z,27.15
2023-03-27T19:02:00.254Z,24.67
2023-03-27T19:04:30.823Z,23.95
2023-03-27T19:07:00.986Z,21.42
2023-03-27T19:09:40.929Z,24.60
2023-03-27T19:12:12.583Z,25.08
2023-03-27T19:15:13.221Z,26.88
2023-03-27T19:18:09.522Z,27.25
2023-03-27T19:21:03.406Z,27.52
2023-03-27T19:23:53.479Z,28.42
2023-03-27T19:26:27.743Z,21.65
2023-03-27T19:28:58.517Z,25.13
2023-03-27T19:31:29.699Z,24.13
2023-03-27T19:34:01.753Z,26.27
2023-03-27T19:36:32.750Z,23.70
2023-03-27T19:39:02.931Z,23.30
2023-03-27T19:41:33.352Z,28.27
2023-03-27T19:44:03.809Z,28.48
2023-03-27T19:46:34.084Z,24.67
2023-03-27T19:49:05.075Z,24.45
2023-03-27T19:51:54.363Z,24.15
2023-03-27T19:54:24.569Z,24.65
2023-03-27T19:56:55.276Z,25.00
2023-03-27T19:59:31.160Z,26.80
2023-03-27T20:02:02.355Z,28.05
2023-03-27T20:04:33.098Z,21.55
2023-03-27T20:07:04.243Z,25.48
2023-03-27T20:09:34.312Z,24.85
2023-03-27T20:12:07.005Z,26.30
2023-03-27T20:14:37.144Z,26.05
2023-03-27T20:17:12.307Z,28.02
2023-03-27T20:19:53.287Z,24.70
2023-03-27T20:22:23.870Z,25.17
2023-03-27T20:24:54.029Z,25.95
2023-03-27T20:27:24.332Z,27.05
2023-03-27T20:29:54.459Z,27.65
2023-03-27T20:32:25.041Z,28.42
2023-03-27T20:34:56.308Z,30.45
2023-03-27T20:37:28.552Z,24.92
2023-03-27T20:40:19.403Z,25.08
2023-03-27T20:42:49.801Z,25.52
2023-03-27T20:45:29.354Z,32.90
2023-03-27T20:48:04.694Z,26.98
2023-03-27T20:50:37.115Z,30.33
2023-03-27T20:53:07.320Z,33.35
2023-03-27T20:55:43.616Z,36.40
2023-03-27T20:58:20.318Z,34.65
2023-03-27T21:00:50.494Z,39.35
2023-03-27T21:03:21.233Z,34.25
2023-03-27T21:05:52.132Z,35.22
2023-03-27T21:08:22.872Z,35.40
2023-03-27T21:10:56.581Z,39.78
2023-03-27T21:13:27.153Z,33.72
2023-03-27T21:15:57.692Z,37.45
2023-03-27T21:18:28.707Z,40.40
2023-03-27T21:20:59.288Z,36.80
2023-03-27T21:23:29.718Z,40.83
2023-03-27T21:26:00.287Z,36.42
2023-03-27T21:28:30.656Z,41.40
2023-03-27T21:31:07.943Z,39.35
2023-03-27T21:33:39.035Z,46.05
2023-03-27T21:36:11.321Z,42.70
2023-03-27T21:38:42.331Z,40.30
2023-03-27T21:41:15.417Z,42.28
2023-03-27T21:43:45.694Z,41.25
2023-03-27T21:46:16.416Z,38.05
2023-03-27T21:48:54.766Z,42.67
2023-03-27T21:51:25.072Z,42.40
2023-03-27T21:53:55.296Z,47.53
2023-03-27T21:56:25.708Z,42.80
2023-03-27T21:58:58.861Z,40.13
2023-03-27T22:01:29.338Z,48.50
2023-03-27T22:04:03.527Z,44.17
2023-03-27T22:06:33.789Z,39.35
2023-03-27T22:09:05.082Z,39.58
2023-03-27T22:11:35.169Z,46.78
2023-03-27T22:14:05.599Z,41.63
2023-03-27T22:16:35.860Z,44.10
2023-03-27T22:19:06.135Z,43.80
2023-03-27T22:21:36.730Z,45.95
2023-03-27T22:24:07.663Z,45.85
2023-03-27T22:26:39.473Z,45.20
2023-03-27T22:29:10.838Z,44.20
2023-03-27T22:31:41.201Z,60.92
2023-03-27T22:34:12.267Z,47.88
2023-03-27T22:36:43.183Z,41.63
2023-03-27T22:39:13.795Z,44.10
2023-03-27T22:41:44.113Z,51.65
2023-03-27T22:44:14.336Z,44.28
2023-03-27T22:46:44.832Z,49.90
2023-03-27T22:49:15.164Z,57.38
2023-03-27T22:51:45.457Z,46.72
2023-03-27T22:54:15.564Z,45.80
2023-03-27T22:56:45.805Z,43.35
2023-03-27T22:59:18.838Z,40.40
2023-03-27T23:01:49.537Z,45.42
2023-03-27T23:04:19.974Z,45.92
2023-03-27T23:06:50.366Z,45.15
2023-03-27T23:09:20.697Z,50.35
2023-03-27T23:11:51.536Z,48.20
2023-03-27T23:14:21.931Z,51.25
2023-03-27T23:16:52.617Z,49.45
2023-03-27T23:19:24.594Z,47.10
2023-03-27T23:21:54.883Z,42.78
2023-03-27T23:24:25.245Z,47.30
2023-03-27T23:26:55.469Z,45.17
2023-03-27T23:29:26.035Z,44.15
2023-03-27T23:31:56.569Z,47.90
2023-03-27T23:34:27.288Z,47.78
2023-03-27T23:36:57.743Z,43.28
2023-03-27T23:39:28.103Z,44.60
2023-03-27T23:41:58.474Z,42.20
2023-03-27T23:44:28.737Z,45.00
2023-03-27T23:46:58.875Z,46.72
2023-03-27T23:49:29.289Z,45.95
2023-03-27T23:51:59.538Z,48.95
2023-03-27T23:54:30.058Z,42.47
2023-03-27T23:57:00.562Z,43.33
2023-03-27T23:59:37.729Z,38.00
